Time;durP1;ratioP1;P1;durP2;ratioP2;P2;SDS_P1;SDS_P2;PMS_P1;PMS_P2;Temp;Humidity;BMP_temperature;BMP_pressure;BME280_temperature;BME280_humidity;BME280_pressure;Samples;Min_cycle;Max_cycle;Signal;HPM_P1;HPM_P2
2022/03/19 00:01:51;;;;;;;12.23;2.33;;;31.50;14.50;;;;;;4949010;29;20075;-65
2022/03/19 00:04:18;;;;;;;11.52;2.10;;;31.40;15.10;;;;;;4949162;28;20122;-66
2022/03/19 00:06:47;;;;;;;7.40;1.92;;;31.40;15.10;;;;;;4949438;29;20165;-66
2022/03/19 00:09:14;;;;;;;8.50;1.80;;;31.30;15.00;;;;;;4951475;28;20170;-64
2022/03/19 00:11:40;;;;;;;13.00;2.13;;;31.20;15.10;;;;;;4954788;28;20081;-62
2022/03/19 00:14:11;;;;;;;31.80;3.50;;;31.10;15.00;;;;;;4954348;28;20478;-65
2022/03/19 00:16:38;;;;;;;12.77;2.10;;;30.90;15.10;;;;;;4968601;28;20074;-65
2022/03/19 00:19:05;;;;;;;10.13;1.95;;;30.90;15.00;;;;;;4951939;28;20133;-65
2022/03/19 00:21:32;;;;;;;8.57;2.33;;;30.70;15.70;;;;;;4951753;28;20078;-64
2022/03/19 00:24:02;;;;;;;8.90;1.80;;;30.60;15.30;;;;;;4944194;29;20080;-65
2022/03/19 00:26:30;;;;;;;11.70;1.83;;;30.50;15.50;;;;;;4951740;29;20519;-65
2022/03/19 00:28:56;;;;;;;9.20;2.00;;;30.50;15.90;;;;;;4952705;29;20086;-63
2022/03/19 00:31:23;;;;;;;13.80;2.30;;;30.50;15.70;;;;;;4951758;28;20085;-64
2022/03/19 00:33:49;;;;;;;12.63;2.15;;;30.50;15.40;;;;;;4951719;29;20082;-64
2022/03/19 00:36:15;;;;;;;9.32;2.00;;;30.30;15.40;;;;;;4953029;28;20071;-63
2022/03/19 00:38:42;;;;;;;10.55;2.35;;;30.30;15.90;;;;;;4951830;29;20075;-63
2022/03/19 00:41:09;;;;;;;4.80;1.83;;;30.20;15.20;;;;;;4966563;28;20079;-64
2022/03/19 00:43:36;;;;;;;3.88;1.73;;;30.10;15.20;;;;;;4951299;29;20530;-65
2022/03/19 00:46:03;;;;;;;12.45;2.42;;;30.00;15.50;;;;;;4951925;29;20112;-63
2022/03/19 00:48:29;;;;;;;5.90;1.80;;;29.90;15.70;;;;;;4951537;29;20078;-66
2022/03/19 00:50:55;;;;;;;11.02;2.40;;;29.90;15.40;;;;;;4967909;28;20074;-66
2022/03/19 00:53:22;;;;;;;7.53;2.00;;;29.70;15.60;;;;;;4951649;29;21626;-65
2022/03/19 00:55:48;;;;;;;8.15;2.10;;;29.60;15.50;;;;;;4951333;29;20083;-65
2022/03/19 00:58:15;;;;;;;8.05;2.05;;;29.60;16.10;;;;;;4968446;28;20158;-66
2022/03/19 01:00:41;;;;;;;9.30;1.83;;;29.60;16.00;;;;;;4952655;28;20173;-63
2022/03/19 01:03:07;;;;;;;12.02;2.70;;;29.50;16.40;;;;;;4951852;28;20110;-65
2022/03/19 01:05:34;;;;;;;9.15;2.17;;;29.30;16.90;;;;;;4951503;29;20198;-67
2022/03/19 01:08:00;;;;;;;11.50;1.90;;;29.20;17.10;;;;;;4967194;28;20081;-65
2022/03/19 01:10:29;;;;;;;6.72;1.67;;;29.10;16.90;;;;;;4948661;29;20075;-65
2022/03/19 01:12:56;;;;;;;14.65;2.17;;;29.00;17.60;;;;;;4952450;29;20080;-66
2022/03/19 01:15:24;;;;;;;21.67;3.35;;;28.90;17.40;;;;;;4952720;29;20082;-65
2022/03/19 01:17:51;;;;;;;16.05;1.80;;;28.70;18.20;;;;;;4967206;28;20452;-65
2022/03/19 01:20:18;;;;;;;9.18;2.03;;;28.50;17.70;;;;;;4964285;28;20161;-65
2022/03/19 01:22:46;;;;;;;65.18;5.32;;;28.50;17.90;;;;;;4951217;29;20076;-63
2022/03/19 01:25:14;;;;;;;71.75;4.53;;;28.40;18.20;;;;;;4967926;28;20415;-68
2022/03/19 01:27:42;;;;;;;10.63;2.05;;;28.30;18.60;;;;;;4951635;28;20447;-67
2022/03/19 01:30:13;;;;;;;16.52;2.45;;;28.10;18.20;;;;;;4952339;29;20103;-64
2022/03/19 01:32:41;;;;;;;14.70;2.63;;;28.00;19.30;;;;;;4950570;29;20558;-68
2022/03/19 01:35:11;;;;;;;13.68;2.38;;;27.90;19.40;;;;;;4966840;28;20512;-67
2022/03/19 01:37:39;;;;;;;24.60;3.08;;;27.70;19.30;;;;;;4952538;28;20076;-65
2022/03/19 01:40:07;;;;;;;16.77;2.22;;;27.60;20.10;;;;;;4952390;28;20076;-69
2022/03/19 01:42:36;;;;;;;11.55;2.88;;;27.40;20.00;;;;;;4951817;28;20101;-67
2022/03/19 01:45:04;;;;;;;14.73;2.47;;;27.30;19.50;;;;;;4966885;28;20139;-67
2022/03/19 01:47:33;;;;;;;15.05;2.83;;;27.20;20.10;;;;;;4952083;28;20075;-65
2022/03/19 01:50:00;;;;;;;16.52;2.80;;;27.00;20.10;;;;;;4953386;28;20080;-68
2022/03/19 01:52:28;;;;;;;17.77;3.40;;;26.80;20.40;;;;;;4951027;28;20151;-66
2022/03/19 01:54:54;;;;;;;16.58;3.00;;;26.70;20.30;;;;;;4951334;29;20087;-67
2022/03/19 01:57:23;;;;;;;22.73;3.88;;;26.50;20.10;;;;;;4952269;28;20551;-67
2022/03/19 01:59:51;;;;;;;19.50;3.97;;;26.40;20.30;;;;;;4968262;28;20451;-67
2022/03/19 02:02:19;;;;;;;20.42;3.50;;;26.20;20.40;;;;;;4951531;29;20104;-68
2022/03/19 02:04:46;;;;;;;25.45;3.78;;;26.10;20.90;;;;;;4957829;28;20536;-65
2022/03/19 02:07:13;;;;;;;49.85;5.15;;;26.00;21.60;;;;;;4958583;28;20592;-67
2022/03/19 02:09:42;;;;;;;48.55;4.82;;;25.90;21.90;;;;;;4952189;28;20564;-65
2022/03/19 02:12:09;;;;;;;33.60;4.95;;;25.80;21.90;;;;;;4951323;29;20088;-66
2022/03/19 02:14:37;;;;;;;35.63;4.60;;;25.70;21.80;;;;;;4935435;29;20206;-65
2022/03/19 02:17:05;;;;;;;27.90;3.83;;;25.50;21.40;;;;;;4966500;28;20083;-67
2022/03/19 02:19:33;;;;;;;22.55;3.72;;;25.40;21.50;;;;;;4967144;28;20080;-65
2022/03/19 02:22:00;;;;;;;22.52;4.15;;;25.40;21.70;;;;;;4949811;28;20105;-68
2022/03/19 02:27:11;;;;;;;31.00;5.15;;;25.20;22.60;;;;;;4950439;28;20102;-66
2022/03/19 02:29:38;;;;;;;19.10;5.30;;;25.10;22.50;;;;;;4950891;29;20088;-65
2022/03/19 02:32:06;;;;;;;29.33;6.10;;;24.90;22.10;;;;;;4949828;28;20503;-68
2022/03/19 02:34:35;;;;;;;26.38;5.20;;;24.90;22.40;;;;;;4951607;28;20567;-65
2022/03/19 02:37:02;;;;;;;27.75;6.20;;;24.80;23.10;;;;;;4951996;28;20154;-66
2022/03/19 02:39:33;;;;;;;36.30;6.60;;;24.70;23.80;;;;;;4950472;28;20095;-66
2022/03/19 02:42:05;;;;;;;32.25;6.20;;;24.70;24.20;;;;;;4947459;28;20166;-64
2022/03/19 02:44:32;;;;;;;47.05;7.20;;;24.60;24.60;;;;;;4948889;29;20119;-66
2022/03/19 02:47:06;;;;;;;46.30;7.50;;;24.50;24.70;;;;;;4950038;29;20443;-67
2022/03/19 02:49:33;;;;;;;58.63;7.38;;;24.40;24.50;;;;;;4950682;28;20162;-66
2022/03/19 02:51:59;;;;;;;38.47;6.32;;;24.20;24.40;;;;;;4951314;28;20713;-66
2022/03/19 02:54:28;;;;;;;42.25;6.22;;;24.20;24.70;;;;;;4954538;28;20566;-66
2022/03/19 02:56:55;;;;;;;34.05;6.07;;;24.10;25.20;;;;;;4951508;28;20091;-66
2022/03/19 02:59:24;;;;;;;39.55;6.45;;;24.00;25.10;;;;;;4951236;28;20092;-65
2022/03/19 03:01:53;;;;;;;51.00;7.25;;;24.00;24.90;;;;;;4934738;28;20162;-66
2022/03/19 03:04:20;;;;;;;56.65;8.00;;;23.90;25.10;;;;;;4944019;29;20566;-66
2022/03/19 03:06:48;;;;;;;65.50;8.82;;;23.80;25.60;;;;;;4949775;28;20123;-65
2022/03/19 03:09:18;;;;;;;70.70;8.27;;;23.70;26.10;;;;;;4966539;28;20092;-64
2022/03/19 03:11:46;;;;;;;63.42;7.50;;;23.70;26.60;;;;;;4952348;28;20159;-65
2022/03/19 03:14:14;;;;;;;79.03;9.10;;;23.60;26.80;;;;;;4966093;28;20455;-64
2022/03/19 03:16:42;;;;;;;74.22;8.98;;;23.50;26.90;;;;;;4949693;29;20162;-65
2022/03/19 03:19:10;;;;;;;55.42;7.90;;;23.50;27.00;;;;;;4950770;28;20119;-66
2022/03/19 03:21:39;;;;;;;45.35;7.60;;;23.50;26.80;;;;;;4951403;28;20138;-67
2022/03/19 03:24:07;;;;;;;49.13;7.28;;;23.40;26.80;;;;;;4950906;28;20175;-65
2022/03/19 03:26:33;;;;;;;34.10;7.43;;;23.30;26.70;;;;;;4950410;28;20446;-66
2022/03/19 03:29:00;;;;;;;35.00;6.68;;;23.30;27.20;;;;;;4949475;28;20099;-65
2022/03/19 03:31:27;;;;;;;31.75;6.82;;;23.20;26.90;;;;;;4950065;28;20508;-66
2022/03/19 03:33:54;;;;;;;28.90;6.13;;;23.10;26.70;;;;;;4965625;28;20099;-66
2022/03/19 03:36:21;;;;;;;42.10;7.85;;;23.00;26.90;;;;;;4950803;28;20106;-64
2022/03/19 03:38:48;;;;;;;37.95;7.28;;;22.90;26.80;;;;;;4950115;28;20083;-66
2022/03/19 03:41:15;;;;;;;48.30;10.13;;;22.80;27.00;;;;;;4951755;28;20076;-66
2022/03/19 03:43:41;;;;;;;45.72;13.55;;;22.80;27.60;;;;;;4951507;28;20076;-66
2022/03/19 03:46:08;;;;;;;46.20;12.65;;;22.80;27.50;;;;;;4952514;28;20559;-67
2022/03/19 03:48:38;;;;;;;56.42;16.95;;;22.70;27.30;;;;;;4955291;28;20134;-64
2022/03/19 03:51:06;;;;;;;54.08;16.45;;;22.60;27.60;;;;;;4956646;28;20088;-65
2022/03/19 03:53:34;;;;;;;50.40;15.30;;;22.60;27.90;;;;;;4953253;29;20179;-65
2022/03/19 03:56:00;;;;;;;74.07;16.08;;;22.50;28.30;;;;;;4969203;28;20095;-68
2022/03/19 03:58:27;;;;;;;76.85;15.25;;;22.50;28.60;;;;;;4956464;28;20528;-67
2022/03/19 04:00:54;;;;;;;63.80;16.25;;;22.50;28.60;;;;;;4952896;28;20082;-65
2022/03/19 04:03:21;;;;;;;59.25;16.85;;;22.40;28.60;;;;;;4951952;28;20091;-65
2022/03/19 04:05:47;;;;;;;61.58;18.60;;;22.40;28.90;;;;;;4952154;29;20170;-64
2022/03/19 04:08:14;;;;;;;59.78;19.15;;;22.30;28.50;;;;;;4951882;28;20068;-62
2022/03/19 04:10:40;;;;;;;88.75;23.92;;;22.30;28.50;;;;;;4967859;28;20156;-64
2022/03/19 04:13:07;;;;;;;83.35;25.05;;;22.20;28.50;;;;;;4957055;28;20095;-64
2022/03/19 04:15:33;;;;;;;80.20;23.92;;;22.20;28.70;;;;;;4968092;28;20076;-65
2022/03/19 04:18:01;;;;;;;83.55;26.63;;;22.10;29.00;;;;;;4952644;28;20122;-67
2022/03/19 04:20:28;;;;;;;92.10;24.42;;;22.00;29.00;;;;;;4946633;28;20135;-66
2022/03/19 04:22:54;;;;;;;81.90;21.20;;;22.10;29.30;;;;;;4951360;29;20095;-64
2022/03/19 04:25:23;;;;;;;97.60;21.92;;;22.00;29.80;;;;;;4951636;28;20076;-64
2022/03/19 04:27:51;;;;;;;79.82;19.95;;;22.10;28.50;;;;;;4952651;28;20091;-66
2022/03/19 04:30:19;;;;;;;83.82;19.17;;;22.10;28.20;;;;;;4968315;28;20120;-64
2022/03/19 04:32:51;;;;;;;95.45;21.13;;;22.10;28.50;;;;;;4967219;28;20098;-64
2022/03/19 04:38:07;;;;;;;87.38;20.45;;;22.00;28.60;;;;;;4952216;29;20479;-63
2022/03/19 04:40:35;;;;;;;80.60;19.13;;;22.00;28.80;;;;;;4954714;28;20535;-66
2022/03/19 04:43:01;;;;;;;108.07;19.45;;;21.90;28.90;;;;;;4954214;28;20119;-67
2022/03/19 04:45:28;;;;;;;82.70;20.13;;;21.90;29.10;;;;;;4967089;28;20080;-64
2022/03/19 04:47:55;;;;;;;75.25;19.65;;;21.80;29.30;;;;;;4951740;28;20088;-65
2022/03/19 04:50:21;;;;;;;97.97;19.30;;;21.80;29.30;;;;;;4951922;28;20550;-66
2022/03/19 04:52:49;;;;;;;123.13;21.17;;;21.80;29.30;;;;;;4953246;28;20612;-64
2022/03/19 04:55:16;;;;;;;102.30;22.10;;;21.70;29.10;;;;;;4966320;28;20091;-63
2022/03/19 04:57:42;;;;;;;117.60;21.77;;;21.60;29.20;;;;;;4957514;28;20131;-64
2022/03/19 05:00:11;;;;;;;121.20;21.35;;;21.50;29.60;;;;;;4951849;28;20126;-64
2022/03/19 05:02:38;;;;;;;128.32;21.90;;;21.50;29.40;;;;;;4920223;29;20089;-63
2022/03/19 05:05:05;;;;;;;103.95;21.33;;;21.40;29.50;;;;;;4952446;28;20174;-63
2022/03/19 05:07:35;;;;;;;116.95;22.15;;;21.30;29.60;;;;;;4952397;28;20564;-63
2022/03/19 05:12:48;;;;;;;128.03;23.90;;;21.10;29.90;;;;;;4937883;29;20486;-64
2022/03/19 05:15:16;;;;;;;131.63;23.27;;;21.10;29.90;;;;;;4967133;28;20272;-64
2022/03/19 05:17:44;;;;;;;133.43;23.83;;;21.10;29.70;;;;;;4951748;29;20100;-64
2022/03/19 05:20:11;;;;;;;111.25;22.40;;;21.10;29.60;;;;;;4967031;28;20080;-64
2022/03/19 05:22:38;;;;;;;133.75;22.85;;;21.10;29.50;;;;;;4950665;29;20088;-64
2022/03/19 05:25:06;;;;;;;142.30;24.02;;;21.00;29.40;;;;;;4950757;28;20084;-63
2022/03/19 05:27:33;;;;;;;151.07;24.70;;;20.90;29.40;;;;;;4966994;28;20072;-63
2022/03/19 05:29:59;;;;;;;117.43;23.45;;;20.90;29.60;;;;;;4967133;28;20127;-63
2022/03/19 05:32:26;;;;;;;127.85;23.02;;;20.80;29.60;;;;;;4950904;28;20072;-65
2022/03/19 05:34:55;;;;;;;151.55;26.35;;;20.80;29.80;;;;;;4967019;28;20099;-64
2022/03/19 05:37:21;;;;;;;180.75;27.42;;;20.80;29.80;;;;;;4950969;28;20092;-65
2022/03/19 05:39:48;;;;;;;152.10;26.77;;;20.70;29.80;;;;;;4966288;28;20115;-65
2022/03/19 05:42:14;;;;;;;142.32;26.55;;;20.60;29.90;;;;;;4965990;28;20100;-66
2022/03/19 05:44:41;;;;;;;151.18;26.55;;;20.50;30.00;;;;;;4933170;29;20186;-65
2022/03/19 05:47:08;;;;;;;153.98;25.40;;;20.50;30.10;;;;;;4966520;28;20076;-64
2022/03/19 05:49:34;;;;;;;145.55;24.98;;;20.50;30.00;;;;;;4951595;28;20137;-65
2022/03/19 05:52:01;;;;;;;139.10;23.58;;;20.50;29.80;;;;;;4951715;28;20126;-66
2022/03/19 05:54:27;;;;;;;149.15;25.05;;;20.40;29.90;;;;;;4951049;28;20088;-65
2022/03/19 05:56:54;;;;;;;152.30;25.80;;;20.30;30.00;;;;;;4949367;28;20145;-64
2022/03/19 05:59:21;;;;;;;177.38;26.63;;;20.30;30.10;;;;;;4951636;28;20068;-64
2022/03/19 06:01:48;;;;;;;155.50;26.90;;;20.20;30.30;;;;;;4951175;29;20063;-64
2022/03/19 06:04:15;;;;;;;144.85;25.95;;;20.20;30.60;;;;;;4950724;28;20819;-65
2022/03/19 06:06:42;;;;;;;160.73;25.25;;;20.20;30.70;;;;;;4933299;29;20119;-65
2022/03/19 06:09:08;;;;;;;124.05;24.58;;;20.20;31.00;;;;;;4950469;28;20079;-63
2022/03/19 06:11:35;;;;;;;150.43;26.10;;;20.10;31.00;;;;;;4954137;28;20174;-65
2022/03/19 06:14:02;;;;;;;124.97;24.85;;;20.10;31.10;;;;;;4951113;28;20100;-66
2022/03/19 06:16:29;;;;;;;139.73;22.55;;;20.10;31.30;;;;;;4951671;28;20628;-65
2022/03/19 06:18:55;;;;;;;154.98;27.30;;;20.00;31.20;;;;;;4966937;28;20158;-64
2022/03/19 06:21:25;;;;;;;136.68;25.27;;;20.00;31.40;;;;;;4949404;28;20075;-63
2022/03/19 06:23:52;;;;;;;138.13;25.27;;;20.00;31.70;;;;;;4955148;28;20084;-64
2022/03/19 06:26:23;;;;;;;119.93;26.50;;;19.90;32.00;;;;;;4933959;29;20178;-65
2022/03/19 06:28:50;;;;;;;199.25;28.92;;;19.90;32.20;;;;;;4966439;28;20175;-66
2022/03/19 06:31:19;;;;;;;195.35;28.20;;;19.90;33.00;;;;;;4957437;28;20076;-66
2022/03/19 06:33:45;;;;;;;179.27;28.75;;;19.90;32.90;;;;;;4948419;28;20100;-63
2022/03/19 06:38:58;;;;;;;142.98;29.50;;;19.80;32.30;;;;;;4949497;28;20127;-63
2022/03/19 06:41:24;;;;;;;132.65;27.95;;;19.80;32.30;;;;;;4948095;29;20068;-64
2022/03/19 06:43:52;;;;;;;231.60;32.33;;;19.80;32.30;;;;;;4958397;28;20119;-63
2022/03/19 06:46:18;;;;;;;231.48;33.20;;;19.80;32.50;;;;;;4963620;28;20556;-67
2022/03/19 06:48:46;;;;;;;276.67;33.63;;;19.70;32.80;;;;;;4946214;29;20455;-65
2022/03/19 06:51:13;;;;;;;464.50;42.33;;;19.60;33.20;;;;;;4951156;28;20090;-64
2022/03/19 06:53:40;;;;;;;410.85;43.80;;;19.60;33.30;;;;;;4947505;28;20099;-63
2022/03/19 06:56:06;;;;;;;254.07;29.95;;;19.60;34.90;;;;;;4948437;28;20091;-65
2022/03/19 06:58:33;;;;;;;216.52;30.60;;;19.60;39.30;;;;;;4948997;28;20096;-66
2022/03/19 07:01:01;;;;;;;217.82;30.30;;;19.50;40.60;;;;;;4945925;28;20072;-64
2022/03/19 07:03:28;;;;;;;175.02;29.55;;;19.50;40.50;;;;;;4940225;28;20075;-66
2022/03/19 07:05:55;;;;;;;166.95;29.38;;;19.50;41.00;;;;;;4953716;28;20176;-64
2022/03/19 07:08:21;;;;;;;167.27;30.92;;;19.50;37.30;;;;;;4948568;28;20082;-66
2022/03/19 07:10:48;;;;;;;;;;;19.60;38.10;;;;;;4962501;28;20071;-65
2022/03/19 07:13:15;;;;;;;175.07;32.00;;;19.60;41.80;;;;;;4950805;28;20393;-62
2022/03/19 07:15:41;;;;;;;177.18;30.55;;;19.70;40.50;;;;;;4942060;29;20072;-62
2022/03/19 07:18:08;;;;;;;164.50;30.98;;;19.70;38.40;;;;;;4944785;28;20082;-63
2022/03/19 07:20:35;;;;;;;132.90;30.27;;;19.60;37.10;;;;;;4947002;28;20072;-65
2022/03/19 07:23:04;;;;;;;168.90;30.90;;;19.60;35.20;;;;;;4945210;29;20448;-66
2022/03/19 07:25:33;;;;;;;176.05;33.28;;;19.60;34.10;;;;;;4957548;28;20094;-64
2022/03/19 07:28:08;;;;;;;147.43;31.30;;;19.60;33.70;;;;;;4944680;28;20076;-65
2022/03/19 07:30:34;;;;;;;129.77;32.60;;;19.60;34.00;;;;;;4947399;28;20102;-63
2022/03/19 07:33:01;;;;;;;151.02;31.50;;;19.60;34.10;;;;;;4961377;28;20084;-65
2022/03/19 07:35:28;;;;;;;149.23;33.58;;;19.60;34.20;;;;;;4961826;28;20487;-63
2022/03/19 07:37:54;;;;;;;156.55;35.35;;;19.60;35.00;;;;;;4962301;28;20078;-66
2022/03/19 07:43:09;;;;;;;157.38;40.20;;;19.60;37.90;;;;;;4946548;28;20084;-63
2022/03/19 07:45:36;;;;;;;185.45;42.25;;;19.60;36.10;;;;;;4961920;28;20079;-65
2022/03/19 07:48:03;;;;;;;179.65;44.17;;;19.50;35.90;;;;;;4946705;28;20076;-64
2022/03/19 07:50:30;;;;;;;167.50;41.38;;;19.50;35.00;;;;;;4956954;28;20447;-63
2022/03/19 07:52:57;;;;;;;179.35;40.90;;;19.40;34.90;;;;;;4951026;28;20106;-65
2022/03/19 07:55:24;;;;;;;157.55;41.17;;;19.40;35.60;;;;;;4944852;28;20076;-64
2022/03/19 07:57:51;;;;;;;161.80;38.42;;;19.40;36.20;;;;;;4947134;28;20064;-64
2022/03/19 08:00:17;;;;;;;164.38;39.22;;;19.40;35.70;;;;;;4960796;28;20163;-65
2022/03/19 08:02:44;;;;;;;172.43;39.17;;;19.40;37.40;;;;;;4957028;28;20516;-64
2022/03/19 08:05:11;;;;;;;182.40;39.88;;;19.30;36.50;;;;;;4948636;28;20116;-63
2022/03/19 08:07:39;;;;;;;168.02;40.95;;;19.30;37.00;;;;;;4960362;28;20092;-62
2022/03/19 08:10:07;;;;;;;164.07;42.42;;;19.30;36.10;;;;;;4947311;29;20076;-63
2022/03/19 08:12:34;;;;;;;160.32;40.85;;;19.20;35.40;;;;;;4945064;29;20164;-65
2022/03/19 08:15:03;;;;;;;164.00;41.63;;;19.10;35.30;;;;;;4951859;28;20194;-63
2022/03/19 08:18:16;;;;;;;177.35;38.95;;;19.10;35.90;;;;;;4959125;28;20163;-66
2022/03/19 08:21:10;;;;;;;156.90;38.63;;;19.00;35.70;;;;;;4944308;28;20112;-66
2022/03/19 08:23:37;;;;;;;152.20;38.83;;;19.00;35.70;;;;;;4948606;28;20079;-65
2022/03/19 08:26:03;;;;;;;170.65;39.88;;;18.90;35.80;;;;;;4950950;28;20075;-64
2022/03/19 08:28:29;;;;;;;;;;;18.80;36.00;;;;;;4950793;28;20079;-64
2022/03/19 08:30:56;;;;;;;245.95;91.82;;;18.80;36.20;;;;;;4952918;28;19958;-63
2022/03/19 08:33:22;;;;;;;210.60;74.63;;;18.90;36.60;;;;;;4948996;28;20102;-66
2022/03/19 08:35:48;;;;;;;;;;;18.80;36.40;;;;;;4960901;28;20071;-63
2022/03/19 08:40:59;;;;;;;142.13;38.38;;;18.80;36.20;;;;;;4949951;29;20118;-63
2022/03/19 08:43:25;;;;;;;152.50;39.50;;;18.80;36.50;;;;;;4949891;29;20175;-63
2022/03/19 08:45:52;;;;;;;152.38;37.30;;;18.80;37.40;;;;;;4951178;29;20093;-62
2022/03/19 08:48:19;;;;;;;137.05;37.58;;;18.80;36.90;;;;;;4951880;29;20123;-65
2022/03/19 08:50:46;;;;;;;170.50;40.67;;;18.70;36.60;;;;;;4948741;28;20114;-64
2022/03/19 08:53:16;;;;;;;166.18;38.42;;;18.70;36.60;;;;;;4952224;28;20111;-65
2022/03/19 08:55:45;;;;;;;167.13;39.10;;;18.60;36.60;;;;;;4966414;28;20091;-64
2022/03/19 08:58:13;;;;;;;142.38;36.30;;;18.60;36.80;;;;;;4960330;28;20560;-66
2022/03/19 09:00:41;;;;;;;157.68;37.08;;;18.60;36.60;;;;;;4951248;28;20083;-62
2022/03/19 09:03:07;;;;;;;172.60;38.92;;;18.50;36.20;;;;;;4964314;28;20095;-65
2022/03/19 09:05:34;;;;;;;159.85;40.03;;;18.50;36.40;;;;;;4949365;28;20108;-65
2022/03/19 09:08:00;;;;;;;160.68;38.78;;;18.40;36.40;;;;;;4967014;28;20083;-66
2022/03/19 09:10:27;;;;;;;150.85;36.55;;;18.40;36.80;;;;;;4945148;28;20079;-65
2022/03/19 09:12:55;;;;;;;139.82;34.80;;;18.50;37.60;;;;;;4957983;28;20777;-63
2022/03/19 09:15:22;;;;;;;126.35;34.38;;;18.40;36.50;;;;;;4946239;28;20254;-63
2022/03/19 09:17:49;;;;;;;132.43;34.78;;;18.30;36.40;;;;;;4954166;28;20083;-62
2022/03/19 09:20:15;;;;;;;;;;;18.20;36.40;;;;;;4950113;28;20121;-65
2022/03/19 09:22:41;;;;;;;146.32;33.42;;;18.20;36.40;;;;;;4952187;29;20448;-62
2022/03/19 09:25:08;;;;;;;146.50;32.47;;;18.10;36.60;;;;;;4958686;28;20076;-65
2022/03/19 09:27:34;;;;;;;161.48;34.97;;;18.10;36.80;;;;;;4963610;28;20215;-64
2022/03/19 09:30:01;;;;;;;149.18;36.88;;;18.10;37.20;;;;;;4951375;28;20619;-62
2022/03/19 09:32:27;;;;;;;134.32;34.25;;;18.10;37.90;;;;;;4950574;29;20079;-63
2022/03/19 09:34:53;;;;;;;;;;;18.00;37.70;;;;;;4956401;28;20091;-62
2022/03/19 09:37:20;;;;;;;133.43;33.90;;;18.00;38.00;;;;;;4954892;28;19959;-63
2022/03/19 09:39:46;;;;;;;168.65;38.72;;;17.90;37.80;;;;;;4950593;28;20075;-62
2022/03/19 09:42:12;;;;;;;;;;;17.90;38.30;;;;;;4957503;28;20116;-64
2022/03/19 09:44:45;;;;;;;145.05;35.53;;;17.90;39.00;;;;;;4951090;28;19963;-65
2022/03/19 09:47:12;;;;;;;129.57;32.88;;;17.90;39.10;;;;;;4936043;28;20080;-62
2022/03/19 09:49:39;;;;;;;130.30;34.08;;;17.80;39.50;;;;;;4948971;28;20076;-64
2022/03/19 09:52:06;;;;;;;138.10;36.30;;;17.80;39.20;;;;;;4951803;28;20452;-63
2022/03/19 09:54:32;;;;;;;145.38;35.75;;;17.80;39.40;;;;;;4950374;29;20091;-61
2022/03/19 09:56:58;;;;;;;;;;;17.80;39.70;;;;;;4954656;28;20179;-62
2022/03/19 09:59:27;;;;;;;141.40;31.95;;;17.80;39.50;;;;;;4948681;29;20006;-62
2022/03/19 10:01:53;;;;;;;130.77;35.10;;;17.60;39.00;;;;;;4946753;29;20134;-63
2022/03/19 10:04:20;;;;;;;;;;;17.70;39.50;;;;;;4958882;28;20529;-63
2022/03/19 10:09:46;;;;;;;149.70;34.75;;;17.70;40.40;;;;;;4949990;29;20098;-62
2022/03/19 10:12:29;;;;;;;142.45;34.65;;;17.70;40.20;;;;;;4949893;28;20080;-63
2022/03/19 10:14:57;;;;;;;140.18;34.50;;;17.70;40.00;;;;;;4957051;28;20246;-63
2022/03/19 10:17:37;;;;;;;147.18;35.50;;;17.50;39.30;;;;;;4964512;28;21370;-63
2022/03/19 10:20:12;;;;;;;151.88;36.38;;;17.50;40.00;;;;;;4950060;28;20447;-65
2022/03/19 10:22:44;;;;;;;133.75;35.67;;;17.50;39.60;;;;;;4955997;28;20072;-65
2022/03/19 10:25:13;;;;;;;143.75;35.95;;;17.40;39.10;;;;;;4963624;28;20083;-64
2022/03/19 10:27:44;;;;;;;133.93;34.83;;;17.40;38.90;;;;;;4965128;28;20083;-62
2022/03/19 10:30:20;;;;;;;145.50;34.35;;;17.30;39.30;;;;;;4964456;28;20080;-63
2022/03/19 10:32:54;;;;;;;121.85;34.33;;;17.30;39.40;;;;;;4964528;28;20079;-63
2022/03/19 10:35:32;;;;;;;139.57;35.83;;;17.30;39.80;;;;;;4961975;28;20136;-64
2022/03/19 10:38:01;;;;;;;150.63;35.45;;;17.30;39.70;;;;;;4945376;29;20071;-60
2022/03/19 10:40:43;;;;;;;145.07;36.85;;;17.30;39.90;;;;;;4947754;28;20413;-63
2022/03/19 10:43:10;;;;;;;143.43;35.78;;;17.30;40.60;;;;;;4934410;28;20076;-63
2022/03/19 10:45:45;;;;;;;139.25;35.20;;;17.30;40.40;;;;;;4956450;28;20077;-63
2022/03/19 10:48:13;;;;;;;130.38;33.85;;;17.20;40.20;;;;;;4948454;28;20676;-61
2022/03/19 10:50:40;;;;;;;131.98;35.58;;;17.10;40.00;;;;;;4962210;28;20150;-62
2022/03/19 10:53:07;;;;;;;149.68;36.63;;;17.10;39.90;;;;;;4945538;29;20080;-65
2022/03/19 10:55:34;;;;;;;158.15;36.33;;;17.10;39.60;;;;;;4963031;28;20100;-65
2022/03/19 10:58:01;;;;;;;140.75;36.05;;;17.10;40.40;;;;;;4949735;28;20075;-59
2022/03/19 11:00:28;;;;;;;132.48;33.10;;;17.10;41.00;;;;;;4947123;29;20146;-62
2022/03/19 11:03:00;;;;;;;146.57;36.78;;;17.10;40.30;;;;;;4956320;28;20079;-64
2022/03/19 11:05:33;;;;;;;117.85;33.22;;;17.10;40.70;;;;;;4949704;28;20122;-63
2022/03/19 11:08:02;;;;;;;132.52;35.65;;;17.10;40.30;;;;;;4956247;28;20159;-63
2022/03/19 11:10:28;;;;;;;137.25;36.60;;;17.10;41.20;;;;;;4945553;28;20151;-63
2022/03/19 11:12:59;;;;;;;164.35;36.28;;;17.10;40.90;;;;;;4946804;29;20104;-64
2022/03/19 11:15:29;;;;;;;131.85;33.85;;;17.10;41.50;;;;;;4946412;28;20102;-63
2022/03/19 11:17:58;;;;;;;150.15;34.40;;;17.00;40.80;;;;;;4948177;28;20444;-63
2022/03/19 11:20:24;;;;;;;165.57;34.92;;;16.90;40.70;;;;;;4946925;29;20072;-63
2022/03/19 11:22:54;;;;;;;115.55;31.88;;;16.90;41.30;;;;;;4962564;28;20163;-63
2022/03/19 11:25:27;;;;;;;136.55;36.20;;;16.80;41.20;;;;;;4956991;28;20077;-64
2022/03/19 11:28:11;;;;;;;126.95;35.25;;;16.70;41.00;;;;;;4945906;29;20141;-64
2022/03/19 11:30:45;;;;;;;118.53;33.08;;;16.80;41.40;;;;;;4962686;28;20182;-62
2022/03/19 11:33:19;;;;;;;128.27;34.00;;;16.70;40.70;;;;;;4931763;28;20424;-63
2022/03/19 11:35:56;;;;;;;126.32;33.35;;;16.60;40.70;;;;;;4957238;28;20524;-63
2022/03/19 11:38:24;;;;;;;134.80;35.35;;;16.70;41.80;;;;;;4948101;29;20083;-63
2022/03/19 11:40:56;;;;;;;137.70;33.80;;;16.70;41.60;;;;;;4945225;28;20087;-65
2022/03/19 11:43:26;;;;;;;137.15;36.58;;;16.60;41.70;;;;;;4963591;28;20083;-62
2022/03/19 11:45:54;;;;;;;138.98;37.45;;;16.60;41.80;;;;;;4965220;28;21157;-61
2022/03/19 11:48:36;;;;;;;138.23;40.17;;;16.50;41.30;;;;;;4962249;28;20079;-63
2022/03/19 11:51:31;;;;;;;135.52;39.83;;;16.50;42.10;;;;;;4943590;29;20080;-64
2022/03/19 11:54:05;;;;;;;137.45;42.10;;;16.50;41.90;;;;;;4946901;29;20091;-64
2022/03/19 11:56:52;;;;;;;159.40;43.28;;;16.40;42.00;;;;;;4947973;28;20134;-64
2022/03/19 11:59:22;;;;;;;126.68;39.25;;;16.40;42.70;;;;;;4947938;29;20417;-62
2022/03/19 12:01:54;;;;;;;117.50;39.22;;;16.40;42.10;;;;;;4957278;28;20072;-62
2022/03/19 12:04:22;;;;;;;140.13;39.17;;;16.30;41.70;;;;;;4948085;28;20084;-62
2022/03/19 12:06:59;;;;;;;120.43;37.55;;;16.20;41.80;;;;;;4949569;28;20111;-63
2022/03/19 12:09:32;;;;;;;118.00;37.10;;;16.20;41.90;;;;;;4951215;28;20092;-62
2022/03/19 12:12:17;;;;;;;135.10;35.92;;;16.30;42.60;;;;;;4958920;28;20084;-62
2022/03/19 12:14:49;;;;;;;126.47;33.25;;;16.30;42.20;;;;;;4949260;28;20114;-63
2022/03/19 12:17:21;;;;;;;110.07;33.78;;;16.30;42.20;;;;;;4968437;28;20080;-64
2022/03/19 12:19:54;;;;;;;142.60;36.22;;;16.30;42.00;;;;;;4957489;28;20151;-64
2022/03/19 12:22:31;;;;;;;135.88;33.92;;;16.30;42.30;;;;;;4960670;28;20515;-63
2022/03/19 12:25:18;;;;;;;116.15;34.28;;;16.40;42.50;;;;;;4948655;29;20420;-62
2022/03/19 12:27:56;;;;;;;130.77;34.72;;;16.30;42.50;;;;;;4949100;29;20187;-61
2022/03/19 12:30:25;;;;;;;95.53;31.60;;;16.30;42.60;;;;;;4964460;28;20136;-62
2022/03/19 12:32:54;;;;;;;128.52;34.20;;;16.30;42.10;;;;;;4948408;29;20072;-62
2022/03/19 12:35:42;;;;;;;131.25;33.53;;;16.20;42.50;;;;;;4955282;28;20131;-62
2022/03/19 12:38:08;;;;;;;;;;;16.20;42.10;;;;;;4967166;28;20090;-63
2022/03/19 12:43:21;;;;;;;131.63;34.35;;;16.20;42.10;;;;;;4959490;28;20078;-62
2022/03/19 12:45:52;;;;;;;117.53;33.03;;;16.20;42.50;;;;;;4967227;28;20551;-64
2022/03/19 12:48:20;;;;;;;132.63;36.17;;;16.20;43.10;;;;;;4964327;28;20083;-62
2022/03/19 12:50:54;;;;;;;119.35;32.00;;;16.10;42.50;;;;;;4948536;28;20152;-64
2022/03/19 12:53:37;;;;;;;125.38;29.75;;;16.10;42.60;;;;;;4946969;28;20086;-63
2022/03/19 12:56:17;;;;;;;114.07;29.98;;;16.10;42.00;;;;;;4948911;29;20510;-60
2022/03/19 12:58:46;;;;;;;132.80;31.63;;;16.00;41.30;;;;;;4952597;28;20099;-62